createdAt,value
2017-11-16T00:00:17.284Z,8.40
2017-11-16T00:02:19.977Z,8.40
2017-11-16T00:04:22.631Z,8.40
2017-11-16T00:06:25.300Z,8.30
2017-11-16T00:08:27.991Z,8.30
2017-11-16T00:10:30.638Z,8.30
2017-11-16T00:12:33.335Z,8.30
2017-11-16T00:14:35.990Z,8.30
2017-11-16T00:16:38.836Z,8.30
2017-11-16T00:18:42.270Z,8.20
2017-11-16T00:20:44.936Z,8.20
2017-11-16T00:22:48.384Z,8.20
2017-11-16T00:24:51.055Z,8.20
2017-11-16T00:26:53.700Z,8.20
2017-11-16T00:28:56.386Z,8.20
2017-11-16T00:30:59.030Z,8.20
2017-11-16T00:33:01.707Z,8.10
2017-11-16T00:35:04.361Z,8.10
2017-11-16T00:37:07.909Z,8.10
2017-11-16T00:39:10.592Z,8.10
2017-11-16T00:41:13.243Z,8.10
2017-11-16T00:43:15.924Z,8.10
2017-11-16T00:45:18.562Z,8.10
2017-11-16T00:47:22.004Z,8.10
2017-11-16T00:49:24.645Z,8.10
2017-11-16T00:51:27.293Z,8.20
2017-11-16T00:53:30.729Z,8.20
2017-11-16T00:55:33.387Z,8.20
2017-11-16T00:57:36.075Z,8.20
2017-11-16T00:59:39.135Z,8.20
2017-11-16T01:01:42.570Z,8.30
2017-11-16T01:03:45.261Z,8.30
2017-11-16T01:05:47.922Z,8.30
2017-11-16T01:07:50.601Z,8.30
2017-11-16T01:09:53.258Z,8.30
2017-11-16T01:11:55.903Z,8.30
2017-11-16T01:13:59.454Z,8.30
2017-11-16T01:16:02.126Z,8.30
2017-11-16T01:18:04.796Z,8.30
2017-11-16T01:20:07.463Z,8.30
2017-11-16T01:22:10.117Z,8.30
2017-11-16T01:24:13.569Z,8.30
2017-11-16T01:26:16.240Z,8.30
2017-11-16T01:28:18.915Z,8.30
2017-11-16T01:30:21.565Z,8.30
2017-11-16T01:32:24.255Z,8.30
2017-11-16T01:34:26.914Z,8.30
2017-11-16T01:36:29.565Z,8.30
2017-11-16T01:38:33.002Z,8.30
2017-11-16T01:40:35.684Z,8.30
2017-11-16T01:42:38.555Z,8.30
2017-11-16T01:44:41.238Z,8.30
2017-11-16T01:46:43.916Z,8.30
2017-11-16T01:48:46.608Z,8.30
2017-11-16T01:50:49.262Z,8.30
2017-11-16T01:52:51.943Z,8.30
2017-11-16T01:54:54.611Z,8.30
2017-11-16T01:56:57.267Z,8.30
2017-11-16T01:59:00.152Z,8.30
2017-11-16T02:01:02.835Z,8.30
2017-11-16T02:03:05.505Z,8.30
2017-11-16T02:05:08.225Z,8.30
2017-11-16T02:07:10.924Z,8.30
2017-11-16T02:09:14.373Z,8.30
2017-11-16T02:11:17.071Z,8.30
2017-11-16T02:13:19.734Z,8.30
2017-11-16T02:15:22.406Z,8.30
2017-11-16T02:17:25.108Z,8.30
2017-11-16T02:19:27.799Z,8.30
2017-11-16T02:21:31.282Z,8.30
2017-11-16T02:23:34.020Z,8.30
2017-11-16T02:25:36.703Z,8.40
2017-11-16T02:27:39.383Z,8.30
2017-11-16T02:29:42.114Z,8.30
2017-11-16T02:31:45.573Z,8.30
2017-11-16T02:33:48.570Z,8.30
2017-11-16T02:35:51.299Z,8.40
2017-11-16T02:37:53.982Z,8.30
2017-11-16T02:39:56.675Z,8.30
2017-11-16T02:41:59.393Z,8.30
2017-11-16T02:44:02.970Z,8.40
2017-11-16T02:46:06.410Z,8.40
2017-11-16T02:48:09.165Z,8.40
2017-11-16T02:50:12.628Z,8.40
2017-11-16T02:52:15.318Z,8.40
2017-11-16T02:54:18.059Z,8.40
2017-11-16T02:56:20.727Z,8.30
2017-11-16T02:58:23.424Z,8.30
2017-11-16T03:00:26.151Z,8.30
2017-11-16T03:02:29.630Z,8.30
2017-11-16T03:04:33.048Z,8.30
2017-11-16T03:06:35.751Z,8.30
2017-11-16T03:08:38.412Z,8.30
2017-11-16T03:10:41.206Z,8.30
2017-11-16T03:12:43.873Z,8.30
2017-11-16T03:14:46.575Z,8.30
2017-11-16T03:16:49.248Z,8.30
2017-11-16T03:18:51.907Z,8.30
2017-11-16T03:20:54.540Z,8.30
2017-11-16T03:22:58.175Z,8.30
2017-11-16T03:25:00.856Z,8.30
2017-11-16T03:27:03.585Z,8.30
2017-11-16T03:29:07.052Z,8.20
2017-11-16T03:31:09.716Z,8.20
2017-11-16T03:33:12.390Z,8.20
2017-11-16T03:35:15.081Z,8.20
2017-11-16T03:37:17.810Z,8.30
2017-11-16T03:39:20.533Z,8.30
2017-11-16T03:41:23.174Z,8.20
2017-11-16T03:43:25.855Z,8.20
2017-11-16T03:45:28.527Z,8.20
2017-11-16T03:47:31.224Z,8.30
2017-11-16T03:49:33.905Z,8.30
2017-11-16T03:51:36.608Z,8.30
2017-11-16T03:53:39.316Z,8.30
2017-11-16T03:55:41.983Z,8.20
2017-11-16T03:57:45.450Z,8.30
2017-11-16T03:59:48.182Z,8.30
2017-11-16T04:01:50.835Z,8.30
2017-11-16T04:03:53.523Z,8.30
2017-11-16T04:05:56.184Z,8.30
2017-11-16T04:07:59.632Z,8.20
2017-11-16T04:10:02.278Z,8.20
2017-11-16T04:12:04.989Z,8.20
2017-11-16T04:14:07.649Z,8.20
2017-11-16T04:16:10.347Z,8.20
2017-11-16T04:18:13.113Z,8.20
2017-11-16T04:20:15.809Z,8.20
2017-11-16T04:22:18.608Z,8.20
2017-11-16T04:24:22.090Z,8.20
2017-11-16T04:26:24.831Z,8.20
2017-11-16T04:28:27.529Z,8.20
2017-11-16T04:30:30.208Z,8.20
2017-11-16T04:32:32.911Z,8.20
2017-11-16T04:34:35.602Z,8.20
2017-11-16T04:36:39.128Z,8.20
2017-11-16T04:38:41.930Z,8.20
2017-11-16T04:40:44.591Z,8.20
2017-11-16T04:42:47.266Z,8.20
2017-11-16T04:44:49.909Z,8.20
2017-11-16T04:46:53.368Z,8.20
2017-11-16T04:48:56.034Z,8.20
2017-11-16T04:50:58.696Z,8.20
2017-11-16T04:53:01.374Z,8.20
2017-11-16T04:55:04.460Z,8.20
2017-11-16T04:57:07.122Z,8.20
2017-11-16T04:59:09.783Z,8.20
2017-11-16T05:01:13.253Z,8.10
2017-11-16T05:03:15.915Z,8.10
2017-11-16T05:05:18.578Z,8.10
2017-11-16T05:07:21.289Z,8.10
2017-11-16T05:09:24.696Z,8.10
2017-11-16T05:11:28.129Z,8.10
2017-11-16T05:13:30.842Z,8.10
2017-11-16T05:15:33.506Z,8.10
2017-11-16T05:17:36.178Z,8.10
2017-11-16T05:19:38.959Z,8.00
2017-11-16T05:21:41.621Z,8.00
2017-11-16T05:23:44.356Z,8.00
2017-11-16T05:25:57.311Z,8.00
2017-11-16T05:28:17.962Z,8.00
2017-11-16T05:30:20.786Z,8.00
2017-11-16T05:32:23.449Z,8.00
2017-11-16T05:34:26.098Z,8.00
2017-11-16T05:36:29.548Z,7.90
2017-11-16T05:38:32.238Z,7.90
2017-11-16T05:40:34.919Z,7.90
2017-11-16T05:42:37.600Z,7.90
2017-11-16T05:44:40.296Z,8.00
2017-11-16T05:46:43.741Z,7.90
2017-11-16T05:48:46.421Z,7.90
2017-11-16T05:50:49.891Z,7.90
2017-11-16T05:52:52.659Z,7.90
2017-11-16T05:54:56.648Z,7.90
2017-11-16T05:56:59.379Z,7.90
2017-11-16T05:59:02.216Z,7.90
2017-11-16T06:01:04.923Z,7.90
2017-11-16T06:03:07.601Z,7.90
2017-11-16T06:05:10.284Z,7.80
2017-11-16T06:07:13.008Z,7.80
2017-11-16T06:09:18.550Z,7.90
2017-11-16T06:11:21.293Z,7.80
2017-11-16T06:13:23.992Z,7.80
2017-11-16T06:15:26.646Z,7.80
2017-11-16T06:17:29.327Z,7.80
2017-11-16T06:19:31.999Z,7.80
2017-11-16T06:21:35.354Z,7.80
2017-11-16T06:23:38.024Z,7.80
2017-11-16T06:25:40.685Z,7.80
2017-11-16T06:27:43.338Z,7.80
2017-11-16T06:29:46.015Z,7.80
2017-11-16T06:31:48.658Z,7.80
2017-11-16T06:33:51.359Z,7.80
2017-11-16T06:35:54.003Z,7.80
2017-11-16T06:37:56.673Z,7.80
2017-11-16T06:39:59.351Z,7.80
2017-11-16T06:42:02.145Z,7.80
2017-11-16T06:44:04.829Z,7.70
2017-11-16T06:46:07.505Z,7.70
2017-11-16T06:48:10.245Z,7.80
2017-11-16T06:50:12.987Z,7.80
2017-11-16T06:52:16.421Z,7.70
2017-11-16T06:54:19.482Z,7.80
2017-11-16T06:56:22.155Z,7.70
2017-11-16T06:58:25.592Z,7.70
2017-11-16T07:00:28.276Z,7.70
2017-11-16T07:02:30.922Z,7.70
2017-11-16T07:04:33.603Z,7.60
2017-11-16T07:06:36.267Z,7.60
2017-11-16T07:08:38.964Z,7.60
2017-11-16T07:10:41.632Z,7.50
2017-11-16T07:12:44.291Z,7.40
2017-11-16T07:14:46.981Z,7.40
2017-11-16T07:16:49.656Z,7.40
2017-11-16T07:18:52.411Z,7.40
2017-11-16T07:20:55.836Z,7.20
2017-11-16T07:22:58.487Z,7.20
2017-11-16T07:25:01.928Z,7.30
2017-11-16T07:27:05.740Z,7.30
2017-11-16T07:29:08.516Z,7.30
2017-11-16T07:31:11.191Z,7.20
2017-11-16T07:33:13.884Z,7.30
2017-11-16T07:35:16.756Z,7.20
2017-11-16T07:37:19.441Z,7.30
2017-11-16T07:39:22.112Z,7.30
2017-11-16T07:41:24.881Z,7.20
2017-11-16T07:43:27.690Z,7.30
2017-11-16T07:45:32.162Z,7.20
2017-11-16T07:47:34.923Z,7.20
2017-11-16T07:49:38.053Z,7.20
2017-11-16T07:51:40.776Z,7.20
2017-11-16T07:53:43.505Z,7.30
2017-11-16T07:55:46.163Z,7.20
2017-11-16T07:57:48.857Z,7.20
2017-11-16T07:59:51.562Z,7.10
2017-11-16T08:01:54.216Z,7.20
2017-11-16T08:03:56.940Z,7.20
2017-11-16T08:05:59.740Z,7.20
2017-11-16T08:08:02.432Z,7.20
2017-11-16T08:10:05.090Z,7.20
2017-11-16T08:12:07.780Z,7.10
2017-11-16T08:14:10.442Z,7.10
2017-11-16T08:16:13.131Z,7.10
2017-11-16T08:18:15.782Z,7.00
2017-11-16T08:20:18.457Z,7.00
2017-11-16T08:22:21.126Z,7.00
2017-11-16T08:24:23.817Z,6.90
2017-11-16T08:26:26.583Z,6.80
2017-11-16T08:28:29.255Z,6.80
2017-11-16T08:30:31.902Z,6.90
2017-11-16T08:32:35.351Z,6.90
2017-11-16T08:34:38.000Z,6.80
2017-11-16T08:36:40.685Z,6.80
2017-11-16T08:38:43.374Z,6.90
2017-11-16T08:40:46.045Z,7.00
2017-11-16T08:42:48.854Z,7.10
2017-11-16T08:44:51.562Z,7.10
2017-11-16T08:46:54.294Z,7.10
2017-11-16T08:48:57.029Z,7.10
2017-11-16T08:50:59.753Z,7.10
2017-11-16T08:53:02.464Z,7.20
2017-11-16T08:55:05.952Z,7.10
2017-11-16T08:57:09.433Z,7.20
2017-11-16T08:59:12.133Z,7.20
2017-11-16T09:01:15.613Z,7.20
2017-11-16T09:03:18.333Z,7.20
2017-11-16T09:05:21.112Z,7.30
2017-11-16T09:07:23.805Z,7.30
2017-11-16T09:09:26.500Z,7.40
2017-11-16T09:11:29.192Z,7.60
2017-11-16T09:13:31.987Z,7.60
2017-11-16T09:15:34.703Z,7.80
2017-11-16T09:17:37.409Z,7.90
2017-11-16T09:19:40.141Z,7.70
2017-11-16T09:21:42.853Z,7.70
2017-11-16T09:23:45.543Z,7.70
2017-11-16T09:25:48.250Z,7.70
2017-11-16T09:27:51.689Z,7.90
2017-11-16T09:29:54.542Z,7.90
2017-11-16T09:31:57.250Z,7.90
2017-11-16T09:33:59.953Z,7.80
2017-11-16T09:36:03.441Z,7.90
2017-11-16T09:38:06.100Z,7.90
2017-11-16T09:40:08.859Z,7.90
2017-11-16T09:42:11.540Z,8.00
2017-11-16T09:44:14.258Z,8.10
2017-11-16T09:46:16.986Z,8.00
2017-11-16T09:48:19.665Z,8.00
2017-11-16T09:50:22.377Z,8.20
2017-11-16T09:52:25.073Z,8.00
2017-11-16T09:54:28.621Z,8.00
2017-11-16T09:56:31.325Z,8.00
2017-11-16T09:58:34.807Z,9.40
2017-11-16T10:00:37.505Z,9.40
2017-11-16T10:02:40.177Z,10.00
2017-11-16T10:04:42.852Z,10.10
2017-11-16T10:06:45.593Z,10.50
2017-11-16T10:08:48.243Z,10.70
2017-11-16T10:10:55.670Z,11.70
2017-11-16T10:12:58.323Z,11.60
2017-11-16T10:15:01.031Z,11.50
2017-11-16T10:17:03.707Z,10.60
2017-11-16T10:19:06.375Z,10.50
2017-11-16T10:21:09.049Z,10.20
2017-11-16T10:23:11.727Z,9.70
2017-11-16T10:25:14.439Z,9.60
2017-11-16T10:27:17.107Z,9.60
2017-11-16T10:29:19.836Z,9.10
2017-11-16T10:31:22.528Z,9.10
2017-11-16T10:33:25.222Z,9.20
2017-11-16T10:35:27.910Z,9.20
2017-11-16T10:37:30.566Z,9.40
2017-11-16T10:39:33.212Z,9.30
2017-11-16T10:41:36.017Z,9.30
2017-11-16T10:43:38.693Z,9.40
2017-11-16T10:45:41.459Z,9.60
2017-11-16T10:47:44.130Z,9.60
2017-11-16T10:49:46.936Z,9.60
2017-11-16T10:51:49.624Z,9.70
2017-11-16T10:53:52.295Z,9.90
2017-11-16T10:55:54.981Z,10.00
2017-11-16T10:57:57.836Z,9.70
2017-11-16T11:00:00.833Z,9.90
2017-11-16T11:02:03.790Z,9.90
2017-11-16T11:04:06.464Z,10.00
2017-11-16T11:06:09.135Z,9.90
2017-11-16T11:08:11.805Z,10.30
2017-11-16T11:10:14.489Z,10.60
2017-11-16T11:12:17.144Z,10.50
2017-11-16T11:14:19.806Z,10.30
2017-11-16T11:16:23.263Z,10.10
2017-11-16T11:18:25.947Z,10.10
2017-11-16T11:20:28.690Z,10.00
2017-11-16T11:22:31.357Z,10.00
2017-11-16T11:24:34.035Z,10.00
2017-11-16T11:26:36.755Z,10.10
2017-11-16T11:28:39.745Z,10.30
2017-11-16T11:30:42.635Z,10.50
2017-11-16T11:32:45.313Z,10.50
2017-11-16T11:34:47.966Z,10.40
2017-11-16T11:36:50.621Z,10.10
2017-11-16T11:38:53.351Z,10.00
2017-11-16T11:40:56.798Z,9.70
2017-11-16T11:43:01.645Z,9.70
2017-11-16T11:45:04.375Z,9.60
2017-11-16T11:47:07.297Z,9.50
2017-11-16T11:49:10.816Z,9.60
2017-11-16T11:51:13.585Z,9.60
2017-11-16T11:53:16.251Z,9.60
2017-11-16T11:55:18.919Z,9.60
2017-11-16T11:57:21.597Z,9.50
2017-11-16T11:59:24.282Z,9.40
2017-11-16T12:01:26.961Z,9.40
2017-11-16T12:03:29.631Z,9.40
2017-11-16T12:05:32.420Z,9.50
2017-11-16T12:07:35.867Z,9.50
2017-11-16T12:09:38.546Z,9.40
2017-11-16T12:11:41.186Z,9.40
2017-11-16T12:13:43.846Z,9.40
2017-11-16T12:15:46.525Z,9.40
2017-11-16T12:17:49.178Z,9.50
2017-11-16T12:19:51.874Z,9.50
2017-11-16T12:21:54.537Z,9.50
2017-11-16T12:23:57.223Z,9.60
2017-11-16T12:25:59.949Z,9.60
2017-11-16T12:28:03.377Z,9.70
2017-11-16T12:30:06.100Z,9.70
2017-11-16T12:32:09.530Z,9.70
2017-11-16T12:34:12.265Z,9.70
2017-11-16T12:36:15.729Z,9.70
2017-11-16T12:38:18.446Z,9.70
2017-11-16T12:40:22.386Z,9.70
2017-11-16T12:42:25.231Z,9.70
2017-11-16T12:44:28.467Z,9.70
2017-11-16T12:46:31.399Z,9.60
2017-11-16T12:48:36.233Z,9.60
2017-11-16T12:50:39.870Z,9.50
2017-11-16T12:52:42.696Z,9.50
2017-11-16T12:54:45.414Z,9.60
2017-11-16T12:56:48.117Z,9.50
2017-11-16T12:58:50.782Z,9.60
2017-11-16T13:00:53.785Z,9.60
2017-11-16T13:02:56.477Z,9.60
2017-11-16T13:04:59.296Z,9.60
2017-11-16T13:07:03.061Z,9.60
2017-11-16T13:09:05.729Z,9.60
2017-11-16T13:11:08.424Z,9.70
2017-11-16T13:13:11.898Z,9.60
2017-11-16T13:15:14.609Z,9.60
2017-11-16T13:17:18.859Z,9.60
2017-11-16T13:19:21.662Z,9.60
2017-11-16T13:21:24.360Z,9.70
2017-11-16T13:23:28.485Z,9.80
2017-11-16T13:25:31.297Z,9.70
2017-11-16T13:27:34.078Z,9.60
2017-11-16T13:29:36.785Z,9.60
2017-11-16T13:31:39.610Z,9.70
2017-11-16T13:33:42.920Z,9.70
2017-11-16T13:35:45.619Z,9.70
2017-11-16T13:37:48.771Z,9.70
2017-11-16T13:39:51.563Z,9.70
2017-11-16T13:41:54.562Z,9.60
2017-11-16T13:43:57.262Z,9.50
2017-11-16T13:45:59.910Z,9.50
2017-11-16T13:48:02.610Z,9.40
2017-11-16T13:50:05.481Z,9.30
2017-11-16T13:52:08.133Z,9.20
2017-11-16T13:54:10.832Z,9.20
2017-11-16T13:56:13.499Z,9.20
2017-11-16T13:58:16.158Z,9.10
2017-11-16T14:00:18.845Z,9.10
2017-11-16T14:02:21.529Z,9.10
2017-11-16T14:04:24.193Z,9.10
2017-11-16T14:06:26.888Z,9.10
2017-11-16T14:08:29.601Z,9.10
2017-11-16T14:10:32.267Z,9.10
2017-11-16T14:12:34.958Z,9.10
2017-11-16T14:14:38.372Z,9.20
2017-11-16T14:16:41.170Z,9.20
2017-11-16T14:18:43.967Z,9.10
2017-11-16T14:20:47.656Z,9.10
2017-11-16T14:22:50.429Z,9.10
2017-11-16T14:24:53.411Z,9.10
2017-11-16T14:26:56.198Z,9.10
2017-11-16T14:28:58.964Z,9.10
2017-11-16T14:31:01.669Z,9.10
2017-11-16T14:33:04.338Z,9.10
2017-11-16T14:35:07.488Z,9.00
2017-11-16T14:37:10.907Z,9.10
2017-11-16T14:39:13.588Z,9.10
2017-11-16T14:41:16.293Z,9.10
2017-11-16T14:43:19.724Z,9.10
2017-11-16T14:45:22.440Z,9.10
2017-11-16T14:47:25.122Z,9.10
2017-11-16T14:49:28.152Z,9.10
2017-11-16T14:51:31.615Z,9.00
2017-11-16T14:53:34.289Z,9.00
2017-11-16T14:55:36.943Z,9.00
2017-11-16T14:57:39.704Z,9.00
2017-11-16T14:59:42.484Z,9.00
2017-11-16T15:01:45.312Z,9.00
2017-11-16T15:03:47.955Z,9.00
2017-11-16T15:05:51.220Z,8.70
2017-11-16T15:07:53.932Z,9.00
2017-11-16T15:09:56.607Z,9.00
2017-11-16T15:11:59.297Z,9.00
2017-11-16T15:14:01.943Z,9.00
2017-11-16T15:16:04.672Z,9.00
2017-11-16T15:18:08.112Z,9.00
2017-11-16T15:20:10.861Z,9.00
2017-11-16T15:22:14.352Z,9.00
2017-11-16T15:24:17.818Z,9.00
2017-11-16T15:26:20.502Z,9.00
2017-11-16T15:28:23.200Z,9.00
2017-11-16T15:30:26.629Z,9.00
2017-11-16T15:32:29.759Z,9.00
2017-11-16T15:34:32.429Z,9.00
2017-11-16T15:36:35.167Z,9.00
2017-11-16T15:38:37.858Z,9.00
2017-11-16T15:40:40.525Z,9.00
2017-11-16T15:42:43.191Z,9.00
2017-11-16T15:44:45.855Z,9.00
2017-11-16T15:46:48.531Z,9.00
2017-11-16T15:48:51.205Z,9.00
2017-11-16T15:50:53.897Z,9.00
2017-11-16T15:52:56.677Z,9.00
2017-11-16T15:54:59.330Z,9.00
2017-11-16T15:57:02.019Z,9.00
2017-11-16T15:59:04.666Z,9.00
2017-11-16T16:01:08.078Z,9.00
2017-11-16T16:03:10.773Z,9.00
2017-11-16T16:05:13.524Z,9.00
2017-11-16T16:07:16.236Z,9.00
2017-11-16T16:09:19.104Z,9.00
2017-11-16T16:11:21.991Z,9.00
2017-11-16T16:13:24.669Z,9.00
2017-11-16T16:15:27.350Z,9.00
2017-11-16T16:17:30.080Z,9.00
2017-11-16T16:19:33.513Z,9.00
2017-11-16T16:21:36.174Z,9.00
2017-11-16T16:23:38.860Z,9.00
2017-11-16T16:25:41.512Z,9.00
2017-11-16T16:27:44.219Z,9.00
2017-11-16T16:29:46.874Z,9.00
2017-11-16T16:31:49.563Z,9.00
2017-11-16T16:33:52.245Z,9.00
2017-11-16T16:35:55.164Z,9.00
2017-11-16T16:37:57.848Z,9.00
2017-11-16T16:40:00.516Z,9.00
2017-11-16T16:42:03.187Z,9.00
2017-11-16T16:44:06.646Z,9.00
2017-11-16T16:46:09.302Z,9.00
2017-11-16T16:48:12.014Z,9.00
2017-11-16T16:50:14.710Z,9.00
2017-11-16T16:52:17.394Z,9.00
2017-11-16T16:54:20.076Z,9.00
2017-11-16T16:56:22.773Z,9.00
2017-11-16T16:58:26.301Z,9.00
2017-11-16T17:00:28.961Z,9.00
2017-11-16T17:02:31.634Z,9.00
2017-11-16T17:04:34.322Z,9.00
2017-11-16T17:06:36.973Z,9.00
2017-11-16T17:08:40.419Z,9.00
2017-11-16T17:10:43.089Z,9.00
2017-11-16T17:12:45.790Z,9.00
2017-11-16T17:14:48.467Z,9.00
2017-11-16T17:16:51.130Z,9.00
2017-11-16T17:18:53.822Z,9.00
2017-11-16T17:20:56.475Z,9.00
2017-11-16T17:22:59.167Z,9.00
2017-11-16T17:25:01.808Z,9.00
2017-11-16T17:27:04.463Z,9.00
2017-11-16T17:29:07.751Z,9.00
2017-11-16T17:31:10.478Z,9.00
2017-11-16T17:33:13.143Z,9.00
2017-11-16T17:35:15.853Z,9.00
2017-11-16T17:37:18.530Z,9.00
2017-11-16T17:39:21.256Z,9.00
2017-11-16T17:41:24.233Z,9.00
2017-11-16T17:43:26.916Z,9.10
2017-11-16T17:45:29.693Z,9.10
2017-11-16T17:47:32.387Z,9.10
2017-11-16T17:49:35.087Z,9.10
2017-11-16T17:51:37.790Z,9.10
2017-11-16T17:53:41.231Z,9.10
2017-11-16T17:55:43.897Z,9.10
2017-11-16T17:57:46.575Z,9.10
2017-11-16T17:59:49.277Z,9.10
2017-11-16T18:01:51.941Z,9.10
2017-11-16T18:03:54.615Z,9.10
2017-11-16T18:05:57.270Z,9.10
2017-11-16T18:07:59.934Z,9.20
2017-11-16T18:10:02.658Z,9.10
2017-11-16T18:12:05.331Z,9.20
2017-11-16T18:14:08.033Z,9.20
2017-11-16T18:16:10.695Z,9.20
2017-11-16T18:18:13.372Z,9.20
2017-11-16T18:20:16.014Z,9.20
2017-11-16T18:22:18.685Z,9.20
2017-11-16T18:24:21.351Z,9.20
2017-11-16T18:26:24.118Z,9.20
2017-11-16T18:28:27.050Z,9.20
2017-11-16T18:30:29.727Z,9.20
2017-11-16T18:32:32.391Z,9.20
2017-11-16T18:34:35.080Z,9.20
2017-11-16T18:36:37.776Z,9.20
2017-11-16T18:38:40.446Z,9.20
2017-11-16T18:40:44.733Z,9.30
2017-11-16T18:42:47.382Z,9.20
2017-11-16T18:44:50.073Z,9.30
2017-11-16T18:46:52.735Z,9.20
2017-11-16T18:48:55.424Z,9.20
2017-11-16T18:50:58.096Z,9.30
2017-11-16T18:53:00.914Z,9.30
2017-11-16T18:55:03.864Z,9.30
2017-11-16T18:57:06.673Z,9.30
2017-11-16T18:59:09.427Z,9.30
2017-11-16T19:01:12.081Z,9.30
2017-11-16T19:03:14.765Z,9.30
2017-11-16T19:05:18.794Z,9.30
2017-11-16T19:07:22.257Z,9.30
2017-11-16T19:09:25.028Z,9.30
2017-11-16T19:11:28.491Z,9.30
2017-11-16T19:13:31.263Z,9.30
2017-11-16T19:15:33.998Z,9.30
2017-11-16T19:17:37.625Z,9.30
2017-11-16T19:19:40.700Z,9.30
2017-11-16T19:21:43.345Z,9.30
2017-11-16T19:23:46.827Z,9.30
2017-11-16T19:25:50.274Z,9.30
2017-11-16T19:27:53.245Z,9.30
2017-11-16T19:29:55.910Z,9.30
2017-11-16T19:31:58.573Z,9.20
2017-11-16T19:34:01.287Z,9.20
2017-11-16T19:36:03.957Z,9.20
2017-11-16T19:38:06.746Z,9.20
2017-11-16T19:40:09.409Z,9.20
2017-11-16T19:42:12.179Z,9.20
2017-11-16T19:44:14.846Z,9.20
2017-11-16T19:46:17.503Z,9.20
2017-11-16T19:48:20.183Z,9.20
2017-11-16T19:50:22.849Z,9.20
2017-11-16T19:52:26.407Z,9.20
2017-11-16T19:54:29.083Z,9.20
2017-11-16T19:56:31.731Z,9.20
2017-11-16T19:58:34.488Z,9.20
2017-11-16T20:00:37.153Z,9.20
2017-11-16T20:02:40.597Z,9.20
2017-11-16T20:04:43.278Z,9.20
2017-11-16T20:06:45.928Z,9.20
2017-11-16T20:08:48.937Z,9.20
2017-11-16T20:10:51.694Z,9.20
2017-11-16T20:12:54.352Z,9.20
2017-11-16T20:14:58.088Z,9.20
2017-11-16T20:17:00.758Z,9.20
2017-11-16T20:19:03.438Z,9.20
2017-11-16T20:21:06.084Z,9.20
2017-11-16T20:23:08.866Z,9.20
2017-11-16T20:25:11.565Z,9.20
2017-11-16T20:27:14.329Z,9.20
2017-11-16T20:29:17.038Z,9.20
2017-11-16T20:31:19.695Z,9.20
2017-11-16T20:33:22.464Z,9.20
2017-11-16T20:35:25.137Z,9.20
2017-11-16T20:37:33.634Z,9.20
2017-11-16T20:39:42.097Z,9.20
2017-11-16T20:41:50.592Z,9.20
2017-11-16T20:43:59.016Z,9.20
2017-11-16T20:46:04.262Z,9.20
2017-11-16T20:48:23.799Z,9.20
2017-11-16T20:50:32.101Z,9.20
2017-11-16T20:52:40.669Z,9.20
2017-11-16T20:54:43.341Z,9.20
2017-11-16T20:56:46.071Z,9.20
2017-11-16T20:58:48.878Z,9.10
2017-11-16T21:00:51.591Z,9.10
2017-11-16T21:02:55.034Z,9.20
2017-11-16T21:04:57.692Z,9.20
2017-11-16T21:07:00.438Z,9.10
2017-11-16T21:09:03.899Z,9.10
2017-11-16T21:11:06.674Z,9.10
2017-11-16T21:13:09.340Z,9.10
2017-11-16T21:15:12.338Z,9.20
2017-11-16T21:17:15.014Z,9.10
2017-11-16T21:19:17.666Z,9.20
2017-11-16T21:21:20.383Z,9.20
2017-11-16T21:23:23.836Z,9.20
2017-11-16T21:25:26.718Z,9.20
2017-11-16T21:27:29.560Z,9.20
2017-11-16T21:29:33.187Z,9.20
2017-11-16T21:31:35.875Z,9.20
2017-11-16T21:33:38.761Z,9.20
2017-11-16T21:35:41.426Z,9.20
2017-11-16T21:37:44.094Z,9.20
2017-11-16T21:39:46.754Z,9.20
2017-11-16T21:41:49.439Z,9.20
2017-11-16T21:43:52.108Z,9.20
2017-11-16T21:45:54.765Z,9.20
2017-11-16T21:47:58.235Z,9.10
2017-11-16T21:50:00.892Z,9.10
2017-11-16T21:52:03.675Z,9.10
2017-11-16T21:54:06.336Z,9.00
2017-11-16T21:56:09.041Z,9.00
2017-11-16T21:58:11.707Z,8.90
2017-11-16T22:00:14.456Z,8.80
2017-11-16T22:02:17.177Z,8.80
2017-11-16T22:04:19.860Z,8.70
2017-11-16T22:06:23.297Z,8.60
2017-11-16T22:08:26.003Z,8.60
2017-11-16T22:10:28.661Z,8.60
2017-11-16T22:12:31.434Z,8.50
2017-11-16T22:14:34.210Z,8.50
2017-11-16T22:16:36.914Z,8.50
2017-11-16T22:18:39.666Z,8.40
2017-11-16T22:20:42.332Z,8.30
2017-11-16T22:22:45.010Z,8.20
2017-11-16T22:24:47.778Z,8.10
2017-11-16T22:26:50.454Z,8.10
2017-11-16T22:28:53.117Z,8.20
2017-11-16T22:30:56.557Z,8.40
2017-11-16T22:32:59.340Z,8.40
2017-11-16T22:35:02.073Z,8.50
2017-11-16T22:37:05.515Z,8.50
2017-11-16T22:39:08.173Z,8.50
2017-11-16T22:41:10.830Z,8.50
2017-11-16T22:43:13.506Z,8.40
2017-11-16T22:45:16.177Z,8.30
2017-11-16T22:47:18.855Z,8.30
2017-11-16T22:49:21.523Z,8.10
2017-11-16T22:51:24.971Z,8.20
2017-11-16T22:53:27.621Z,8.20
2017-11-16T22:55:30.292Z,8.20
2017-11-16T22:57:32.963Z,8.10
2017-11-16T22:59:35.668Z,8.20
2017-11-16T23:01:38.365Z,8.20
2017-11-16T23:03:41.028Z,8.30
2017-11-16T23:05:43.686Z,8.40
2017-11-16T23:07:46.369Z,8.50
2017-11-16T23:09:49.035Z,8.50
2017-11-16T23:11:51.716Z,8.60
2017-11-16T23:13:54.389Z,8.70
2017-11-16T23:15:57.162Z,8.70
2017-11-16T23:17:59.844Z,8.80
2017-11-16T23:20:02.516Z,8.80
2017-11-16T23:22:05.202Z,8.80
2017-11-16T23:24:07.878Z,8.90
2017-11-16T23:26:10.555Z,8.90
2017-11-16T23:28:13.233Z,8.90
2017-11-16T23:30:15.971Z,8.90
2017-11-16T23:32:19.817Z,9.00
2017-11-16T23:34:22.469Z,9.00
2017-11-16T23:36:25.251Z,9.00
2017-11-16T23:38:27.938Z,9.10
2017-11-16T23:40:30.612Z,9.10
2017-11-16T23:42:33.292Z,9.10
2017-11-16T23:44:36.116Z,9.10
2017-11-16T23:46:39.580Z,9.20
2017-11-16T23:48:42.331Z,9.20
2017-11-16T23:50:45.109Z,9.20
2017-11-16T23:52:47.778Z,9.20
2017-11-16T23:54:50.447Z,9.10
2017-11-16T23:56:53.133Z,9.10
2017-11-16T23:58:55.800Z,9.10
